createdAt,value
2022-11-15T00:04:48.200Z,7.95
2022-11-15T00:09:49.469Z,7.32
2022-11-15T00:14:50.714Z,7.32
2022-11-15T00:19:51.986Z,8.07
2022-11-15T00:24:53.200Z,7.70
2022-11-15T00:29:54.480Z,7.35
2022-11-15T00:34:55.727Z,7.18
2022-11-15T00:39:57.163Z,7.28
2022-11-15T00:44:58.386Z,8.15
2022-11-15T00:49:59.642Z,7.63
2022-11-15T00:55:00.932Z,8.52
2022-11-15T01:00:02.273Z,7.95
2022-11-15T01:05:04.013Z,8.02
2022-11-15T01:10:06.267Z,7.95
2022-11-15T01:15:08.019Z,7.07
2022-11-15T01:20:09.915Z,7.63
2022-11-15T01:25:11.181Z,6.10
2022-11-15T01:30:12.784Z,6.30
2022-11-15T01:35:14.059Z,5.57
2022-11-15T01:40:15.712Z,5.72
2022-11-15T01:45:17.337Z,5.15
2022-11-15T01:50:23.171Z,4.60
2022-11-15T01:55:28.344Z,5.63
2022-11-15T02:00:31.699Z,5.20
2022-11-15T02:05:33.760Z,5.10
2022-11-15T02:10:35.016Z,5.20
2022-11-15T02:15:51.076Z,5.05
2022-11-15T02:21:37.769Z,4.85
2022-11-15T02:27:17.941Z,4.03
2022-11-15T02:32:27.011Z,4.22
2022-11-15T02:37:40.211Z,4.88
2022-11-15T02:43:09.014Z,4.00
2022-11-15T02:48:11.770Z,4.05
2022-11-15T02:53:14.771Z,4.30
2022-11-15T02:58:36.752Z,3.72
2022-11-15T03:03:58.436Z,4.55
2022-11-15T03:09:19.975Z,4.80
2022-11-15T03:14:36.574Z,4.35
2022-11-15T03:19:56.632Z,4.57
2022-11-15T03:25:06.350Z,4.75
2022-11-15T03:30:09.689Z,4.30
2022-11-15T03:35:21.079Z,4.63
2022-11-15T03:40:28.677Z,4.57
2022-11-15T03:46:01.410Z,4.25
2022-11-15T03:51:04.557Z,4.50
2022-11-15T03:56:06.048Z,4.70
2022-11-15T04:01:07.437Z,5.00
2022-11-15T04:06:08.740Z,5.05
2022-11-15T04:11:10.003Z,4.07
2022-11-15T04:16:11.320Z,4.22
2022-11-15T04:21:31.276Z,4.85
2022-11-15T04:26:32.612Z,4.88
2022-11-15T04:31:34.068Z,5.43
2022-11-15T04:36:54.067Z,4.85
2022-11-15T04:41:55.638Z,4.63
2022-11-15T04:46:57.276Z,4.93
2022-11-15T04:51:58.607Z,4.55
2022-11-15T04:56:59.894Z,4.53
2022-11-15T05:02:01.157Z,4.78
2022-11-15T05:07:03.075Z,5.15
2022-11-15T05:12:04.491Z,4.40
2022-11-15T05:17:05.744Z,4.32
2022-11-15T05:22:07.214Z,4.55
2022-11-15T05:27:08.487Z,4.72
2022-11-15T05:32:10.395Z,5.45
2022-11-15T05:37:11.652Z,5.40
2022-11-15T05:42:14.955Z,5.10
2022-11-15T05:47:20.500Z,5.38
2022-11-15T05:52:25.765Z,5.38
2022-11-15T05:57:27.064Z,5.03
2022-11-15T06:02:28.404Z,6.90
2022-11-15T06:07:30.739Z,6.80
2022-11-15T06:12:32.158Z,23.95
2022-11-15T06:17:33.469Z,9.68
2022-11-15T06:22:34.721Z,9.32
2022-11-15T06:27:36.133Z,6.15
2022-11-15T06:32:37.510Z,5.80
2022-11-15T06:37:39.133Z,5.18
2022-11-15T06:42:40.382Z,5.45
2022-11-15T06:47:48.589Z,5.65
2022-11-15T06:52:50.049Z,6.28
2022-11-15T06:57:52.789Z,7.47
2022-11-15T07:02:54.138Z,6.82
2022-11-15T07:07:57.361Z,6.70
2022-11-15T07:12:58.583Z,6.00
2022-11-15T07:18:02.692Z,5.95
2022-11-15T07:23:06.021Z,6.00
2022-11-15T07:28:07.400Z,5.50
2022-11-15T07:33:08.835Z,6.63
2022-11-15T07:38:10.124Z,6.55
2022-11-15T07:43:11.459Z,6.15
2022-11-15T07:48:12.813Z,6.00
2022-11-15T07:53:14.098Z,6.07
2022-11-15T07:58:15.838Z,5.88
2022-11-15T08:03:18.258Z,5.88
2022-11-15T08:08:19.635Z,5.38
2022-11-15T08:13:22.040Z,5.75
2022-11-15T08:18:23.304Z,5.88
2022-11-15T08:23:24.564Z,6.30
2022-11-15T08:28:25.884Z,6.53
2022-11-15T08:33:27.445Z,6.80
2022-11-15T08:38:32.385Z,6.35
2022-11-15T08:43:34.796Z,6.30
2022-11-15T08:48:36.270Z,5.07
2022-11-15T08:53:37.652Z,4.93
2022-11-15T08:58:39.412Z,4.90
2022-11-15T09:03:41.285Z,4.13
2022-11-15T09:08:50.046Z,4.10
2022-11-15T09:13:51.356Z,4.50
2022-11-15T09:18:54.710Z,4.40
2022-11-15T09:23:56.443Z,4.25
2022-11-15T09:28:57.696Z,4.40
2022-11-15T09:33:59.182Z,4.43
2022-11-15T09:39:01.002Z,4.85
2022-11-15T09:44:05.226Z,5.18
2022-11-15T09:49:09.977Z,4.75
2022-11-15T09:54:53.522Z,4.93
2022-11-15T10:00:43.939Z,4.88
2022-11-15T10:05:39.439Z,4.65
2022-11-15T10:10:45.329Z,4.10
2022-11-15T10:15:49.221Z,4.57
2022-11-15T10:25:56.761Z,5.00
2022-11-15T10:31:00.107Z,4.65
2022-11-15T10:36:10.686Z,4.40
2022-11-15T10:41:12.884Z,4.65
2022-11-15T10:51:57.293Z,3.97
2022-11-15T10:57:01.673Z,4.10
2022-11-15T11:02:03.139Z,4.15
2022-11-15T11:07:22.105Z,3.70
2022-11-15T11:12:30.958Z,4.18
2022-11-15T11:18:10.037Z,4.13
2022-11-15T11:23:17.193Z,3.42
2022-11-15T11:28:36.210Z,3.30
2022-11-15T11:34:14.609Z,3.67
2022-11-15T11:39:46.029Z,4.35
2022-11-15T11:45:06.003Z,3.10
2022-11-15T11:50:20.829Z,2.80
2022-11-15T11:55:46.542Z,3.15
2022-11-15T12:00:52.870Z,3.38
2022-11-15T12:05:58.469Z,3.30
2022-11-15T12:11:20.924Z,3.25
2022-11-15T12:16:27.155Z,3.38
2022-11-15T12:21:52.938Z,3.03
2022-11-15T12:27:14.763Z,2.78
2022-11-15T12:32:27.585Z,2.85
2022-11-15T12:37:49.253Z,2.70
2022-11-15T12:43:13.500Z,2.60
2022-11-15T12:53:28.406Z,2.50
2022-11-15T12:58:57.142Z,2.20
2022-11-15T13:04:20.320Z,2.45
2022-11-15T13:09:37.030Z,2.72
2022-11-15T13:14:38.349Z,3.28
2022-11-15T13:19:39.624Z,2.85
2022-11-15T13:24:40.916Z,2.30
2022-11-15T13:29:44.500Z,2.58
2022-11-15T13:34:52.180Z,2.10
2022-11-15T13:39:53.902Z,2.08
2022-11-15T13:44:57.938Z,1.73
2022-11-15T13:50:00.164Z,1.40
2022-11-15T13:55:09.331Z,1.30
2022-11-15T14:00:45.842Z,1.38
2022-11-15T14:06:04.610Z,1.63
2022-11-15T14:11:20.587Z,1.20
2022-11-15T14:16:33.118Z,1.73
2022-11-15T14:21:34.554Z,1.70
2022-11-15T14:26:35.857Z,1.90
2022-11-15T14:31:42.569Z,1.63
2022-11-15T14:36:45.053Z,1.67
2022-11-15T14:41:46.317Z,1.85
2022-11-15T14:46:49.004Z,1.73
2022-11-15T14:51:50.288Z,1.85
2022-11-15T14:56:51.540Z,1.60
2022-11-15T15:01:52.881Z,1.63
2022-11-15T15:06:54.198Z,1.92
2022-11-15T15:11:55.665Z,1.85
2022-11-15T15:16:56.913Z,2.22
2022-11-15T15:21:58.175Z,3.13
2022-11-15T15:26:59.440Z,4.07
2022-11-15T15:32:00.772Z,4.60
2022-11-15T15:37:26.208Z,4.00
2022-11-15T15:42:27.485Z,4.90
2022-11-15T15:47:28.835Z,8.20
2022-11-15T15:52:30.113Z,10.07
2022-11-15T15:57:31.361Z,7.00
2022-11-15T16:02:36.313Z,29.58
2022-11-15T16:07:44.044Z,13.48
2022-11-15T16:12:45.395Z,28.38
2022-11-15T16:17:57.756Z,41.03
2022-11-15T16:23:04.405Z,32.03
2022-11-15T16:28:29.877Z,11.88
2022-11-15T16:33:31.946Z,13.80
2022-11-15T16:38:34.449Z,9.25
2022-11-15T16:43:35.991Z,41.85
2022-11-15T16:48:37.388Z,26.55
2022-11-15T16:53:38.783Z,18.98
2022-11-15T16:58:40.031Z,17.00
2022-11-15T17:03:41.282Z,34.13
2022-11-15T17:08:42.688Z,48.13
2022-11-15T17:13:44.411Z,26.83
2022-11-15T17:18:50.440Z,66.57
2022-11-15T17:23:51.814Z,10.40
2022-11-15T17:28:57.125Z,8.40
2022-11-15T17:33:58.529Z,7.85
2022-11-15T17:39:00.320Z,4.93
2022-11-15T17:44:03.361Z,3.25
2022-11-15T17:49:04.732Z,3.13
2022-11-15T17:54:06.229Z,3.05
2022-11-15T17:59:13.817Z,3.28
2022-11-15T18:04:17.528Z,3.40
2022-11-15T18:09:19.295Z,3.20
2022-11-15T18:14:20.837Z,3.13
2022-11-15T18:19:22.248Z,3.58
2022-11-15T18:24:24.064Z,3.38
2022-11-15T18:29:25.653Z,3.95
2022-11-15T18:34:33.498Z,3.85
2022-11-15T18:39:35.110Z,3.55
2022-11-15T18:44:36.506Z,4.40
2022-11-15T18:49:37.739Z,4.47
2022-11-15T18:54:38.996Z,3.50
2022-11-15T18:59:40.267Z,3.90
2022-11-15T19:04:41.619Z,5.32
2022-11-15T19:09:42.929Z,5.15
2022-11-15T19:14:44.199Z,5.32
2022-11-15T19:19:45.479Z,4.55
2022-11-15T19:24:46.777Z,3.78
2022-11-15T19:29:48.048Z,4.20
2022-11-15T19:34:49.297Z,4.07
2022-11-15T19:39:50.638Z,4.07
2022-11-15T19:44:51.939Z,4.93
2022-11-15T19:49:53.182Z,4.75
2022-11-15T19:54:54.480Z,5.05
2022-11-15T19:59:55.744Z,5.13
2022-11-15T20:04:57.036Z,6.18
2022-11-15T20:09:58.753Z,5.78
2022-11-15T20:15:00.041Z,5.95
2022-11-15T20:20:01.367Z,5.60
2022-11-15T20:25:02.841Z,6.40
2022-11-15T20:30:04.741Z,5.80
2022-11-15T20:35:06.078Z,5.35
2022-11-15T20:40:07.935Z,6.10
2022-11-15T20:45:09.549Z,5.25
2022-11-15T20:50:40.588Z,4.95
2022-11-15T20:55:32.217Z,5.47
2022-11-15T21:00:33.643Z,5.97
2022-11-15T21:05:38.421Z,5.70
2022-11-15T21:11:01.770Z,5.03
2022-11-15T21:16:03.726Z,5.93
2022-11-15T21:21:05.606Z,5.85
2022-11-15T21:26:07.401Z,6.22
2022-11-15T21:31:09.151Z,6.88
2022-11-15T21:36:10.448Z,5.90
2022-11-15T21:41:11.720Z,5.88
2022-11-15T21:46:12.995Z,6.05
2022-11-15T21:51:14.423Z,5.57
2022-11-15T21:56:15.898Z,5.65
2022-11-15T22:01:36.186Z,4.72
2022-11-15T22:06:37.675Z,5.20
2022-11-15T22:11:39.039Z,5.57
2022-11-15T22:16:40.391Z,5.80
2022-11-15T22:21:43.136Z,5.35
2022-11-15T22:26:45.555Z,5.13
2022-11-15T22:31:46.862Z,4.88
2022-11-15T22:37:18.186Z,5.93
2022-11-15T22:42:09.676Z,5.82
2022-11-15T22:47:11.090Z,4.85
2022-11-15T22:52:13.593Z,5.00
2022-11-15T22:57:14.911Z,5.43
2022-11-15T23:02:16.316Z,4.70
2022-11-15T23:07:17.658Z,5.90
2022-11-15T23:12:37.754Z,5.28
2022-11-15T23:17:39.089Z,5.38
2022-11-15T23:22:49.180Z,5.05
2022-11-15T23:27:50.445Z,4.18
2022-11-15T23:33:10.547Z,4.30
2022-11-15T23:38:11.815Z,4.57
2022-11-15T23:43:13.116Z,4.50
2022-11-15T23:48:14.553Z,4.07
2022-11-15T23:53:15.965Z,5.15
2022-11-15T23:58:17.259Z,5.45
